sensor_id;sensor_type;location;lat;lon;timestamp;P1;durP1;ratioP1;P2;durP2;ratioP2
40459;SDS011;26164;51.138;16.952;2023-04-21T00:01:04;26.70;;;12.90;;
40459;SDS011;26164;51.138;16.952;2023-04-21T00:03:35;31.30;;;12.45;;
40459;SDS011;26164;51.138;16.952;2023-04-21T00:06:06;31.00;;;12.00;;
40459;SDS011;26164;51.138;16.952;2023-04-21T00:08:34;29.95;;;12.02;;
40459;SDS011;26164;51.138;16.952;2023-04-21T00:11:05;28.40;;;12.98;;
40459;SDS011;26164;51.138;16.952;2023-04-21T00:13:32;28.25;;;12.88;;
40459;SDS011;26164;51.138;16.952;2023-04-21T00:15:59;32.28;;;12.25;;
40459;SDS011;26164;51.138;16.952;2023-04-21T00:18:25;29.90;;;12.45;;
40459;SDS011;26164;51.138;16.952;2023-04-21T00:20:52;25.42;;;12.48;;
40459;SDS011;26164;51.138;16.952;2023-04-21T00:23:19;31.67;;;13.68;;
40459;SDS011;26164;51.138;16.952;2023-04-21T00:25:45;30.45;;;12.98;;
40459;SDS011;26164;51.138;16.952;2023-04-21T00:28:11;27.27;;;12.75;;
40459;SDS011;26164;51.138;16.952;2023-04-21T00:30:40;35.78;;;13.20;;
40459;SDS011;26164;51.138;16.952;2023-04-21T00:33:06;35.42;;;13.13;;
40459;SDS011;26164;51.138;16.952;2023-04-21T00:35:32;32.10;;;13.27;;
40459;SDS011;26164;51.138;16.952;2023-04-21T00:38:03;33.00;;;13.50;;
40459;SDS011;26164;51.138;16.952;2023-04-21T00:40:28;29.08;;;13.27;;
40459;SDS011;26164;51.138;16.952;2023-04-21T00:42:57;32.13;;;13.23;;
40459;SDS011;26164;51.138;16.952;2023-04-21T00:45:28;29.05;;;12.68;;
40459;SDS011;26164;51.138;16.952;2023-04-21T00:47:56;24.73;;;13.57;;
40459;SDS011;26164;51.138;16.952;2023-04-21T00:50:24;27.88;;;12.90;;
40459;SDS011;26164;51.138;16.952;2023-04-21T00:53:04;26.83;;;13.43;;
40459;SDS011;26164;51.138;16.952;2023-04-21T00:55:34;25.33;;;13.95;;
40459;SDS011;26164;51.138;16.952;2023-04-21T00:58:01;30.98;;;13.32;;
40459;SDS011;26164;51.138;16.952;2023-04-21T01:00:34;30.15;;;13.20;;
40459;SDS011;26164;51.138;16.952;2023-04-21T01:03:06;28.80;;;13.10;;
40459;SDS011;26164;51.138;16.952;2023-04-21T01:05:32;24.42;;;12.60;;
40459;SDS011;26164;51.138;16.952;2023-04-21T01:08:00;31.85;;;13.55;;
40459;SDS011;26164;51.138;16.952;2023-04-21T01:10:30;25.50;;;13.50;;
40459;SDS011;26164;51.138;16.952;2023-04-21T01:12:57;25.38;;;13.32;;
40459;SDS011;26164;51.138;16.952;2023-04-21T01:15:25;34.20;;;13.07;;
40459;SDS011;26164;51.138;16.952;2023-04-21T01:17:57;25.50;;;12.77;;
40459;SDS011;26164;51.138;16.952;2023-04-21T01:20:23;31.17;;;12.85;;
40459;SDS011;26164;51.138;16.952;2023-04-21T01:22:49;29.42;;;13.40;;
40459;SDS011;26164;51.138;16.952;2023-04-21T01:25:17;30.33;;;13.10;;
40459;SDS011;26164;51.138;16.952;2023-04-21T01:27:48;21.80;;;13.02;;
40459;SDS011;26164;51.138;16.952;2023-04-21T01:30:14;28.85;;;14.02;;
40459;SDS011;26164;51.138;16.952;2023-04-21T01:32:40;30.45;;;13.93;;
40459;SDS011;26164;51.138;16.952;2023-04-21T01:35:08;25.92;;;13.13;;
40459;SDS011;26164;51.138;16.952;2023-04-21T01:37:36;31.40;;;13.52;;
40459;SDS011;26164;51.138;16.952;2023-04-21T01:40:05;33.90;;;14.20;;
40459;SDS011;26164;51.138;16.952;2023-04-21T01:42:32;33.92;;;14.20;;
40459;SDS011;26164;51.138;16.952;2023-04-21T01:45:01;27.98;;;14.55;;
40459;SDS011;26164;51.138;16.952;2023-04-21T01:47:27;31.38;;;14.55;;
40459;SDS011;26164;51.138;16.952;2023-04-21T01:49:53;33.35;;;15.95;;
40459;SDS011;26164;51.138;16.952;2023-04-21T01:52:19;33.35;;;16.02;;
40459;SDS011;26164;51.138;16.952;2023-04-21T01:54:45;30.15;;;14.85;;
40459;SDS011;26164;51.138;16.952;2023-04-21T01:57:12;33.70;;;15.02;;
40459;SDS011;26164;51.138;16.952;2023-04-21T01:59:40;33.20;;;14.48;;
40459;SDS011;26164;51.138;16.952;2023-04-21T02:02:05;35.70;;;15.32;;
40459;SDS011;26164;51.138;16.952;2023-04-21T02:04:32;30.42;;;14.90;;
40459;SDS011;26164;51.138;16.952;2023-04-21T02:06:59;30.48;;;16.42;;
40459;SDS011;26164;51.138;16.952;2023-04-21T02:09:25;30.30;;;15.38;;
40459;SDS011;26164;51.138;16.952;2023-04-21T02:11:53;31.23;;;14.00;;
40459;SDS011;26164;51.138;16.952;2023-04-21T02:14:20;26.63;;;15.73;;
40459;SDS011;26164;51.138;16.952;2023-04-21T02:16:46;33.50;;;15.25;;
40459;SDS011;26164;51.138;16.952;2023-04-21T02:19:12;28.23;;;14.27;;
40459;SDS011;26164;51.138;16.952;2023-04-21T02:21:37;31.27;;;15.20;;
40459;SDS011;26164;51.138;16.952;2023-04-21T02:24:03;34.50;;;15.30;;
40459;SDS011;26164;51.138;16.952;2023-04-21T02:26:29;34.58;;;16.05;;
40459;SDS011;26164;51.138;16.952;2023-04-21T02:28:55;32.10;;;15.30;;
40459;SDS011;26164;51.138;16.952;2023-04-21T02:31:21;33.08;;;15.52;;
40459;SDS011;26164;51.138;16.952;2023-04-21T02:33:47;33.67;;;14.55;;
40459;SDS011;26164;51.138;16.952;2023-04-21T02:36:13;31.60;;;15.18;;
40459;SDS011;26164;51.138;16.952;2023-04-21T02:38:39;34.55;;;16.05;;
40459;SDS011;26164;51.138;16.952;2023-04-21T02:41:06;34.30;;;16.63;;
40459;SDS011;26164;51.138;16.952;2023-04-21T02:43:33;38.55;;;15.57;;
40459;SDS011;26164;51.138;16.952;2023-04-21T02:45:59;35.78;;;17.33;;
40459;SDS011;26164;51.138;16.952;2023-04-21T02:48:25;32.30;;;17.80;;
40459;SDS011;26164;51.138;16.952;2023-04-21T02:50:51;36.03;;;18.25;;
40459;SDS011;26164;51.138;16.952;2023-04-21T02:53:18;38.08;;;18.02;;
40459;SDS011;26164;51.138;16.952;2023-04-21T02:55:44;35.05;;;19.63;;
40459;SDS011;26164;51.138;16.952;2023-04-21T02:58:10;39.53;;;19.58;;
40459;SDS011;26164;51.138;16.952;2023-04-21T03:00:36;38.60;;;19.48;;
40459;SDS011;26164;51.138;16.952;2023-04-21T03:03:02;38.75;;;18.92;;
40459;SDS011;26164;51.138;16.952;2023-04-21T03:05:27;40.58;;;18.85;;
40459;SDS011;26164;51.138;16.952;2023-04-21T03:07:54;38.72;;;19.83;;
40459;SDS011;26164;51.138;16.952;2023-04-21T03:10:19;40.63;;;18.58;;
40459;SDS011;26164;51.138;16.952;2023-04-21T03:12:46;43.13;;;20.50;;
40459;SDS011;26164;51.138;16.952;2023-04-21T03:15:12;37.20;;;20.17;;
40459;SDS011;26164;51.138;16.952;2023-04-21T03:17:39;40.53;;;19.92;;
40459;SDS011;26164;51.138;16.952;2023-04-21T03:20:06;47.63;;;21.58;;
40459;SDS011;26164;51.138;16.952;2023-04-21T03:22:36;53.33;;;21.42;;
40459;SDS011;26164;51.138;16.952;2023-04-21T03:25:02;49.75;;;21.73;;
40459;SDS011;26164;51.138;16.952;2023-04-21T03:27:29;41.42;;;22.20;;
40459;SDS011;26164;51.138;16.952;2023-04-21T03:29:55;41.85;;;21.75;;
40459;SDS011;26164;51.138;16.952;2023-04-21T03:32:23;46.42;;;22.83;;
40459;SDS011;26164;51.138;16.952;2023-04-21T03:34:48;66.88;;;28.77;;
40459;SDS011;26164;51.138;16.952;2023-04-21T03:37:16;71.80;;;37.75;;
40459;SDS011;26164;51.138;16.952;2023-04-21T03:39:42;70.03;;;38.08;;
40459;SDS011;26164;51.138;16.952;2023-04-21T03:42:08;65.18;;;35.60;;
40459;SDS011;26164;51.138;16.952;2023-04-21T03:44:41;63.10;;;33.88;;
40459;SDS011;26164;51.138;16.952;2023-04-21T03:47:07;64.07;;;34.38;;
40459;SDS011;26164;51.138;16.952;2023-04-21T03:49:33;57.05;;;33.00;;
40459;SDS011;26164;51.138;16.952;2023-04-21T03:51:59;57.00;;;31.15;;
40459;SDS011;26164;51.138;16.952;2023-04-21T03:54:24;53.50;;;27.55;;
40459;SDS011;26164;51.138;16.952;2023-04-21T03:56:53;62.40;;;33.97;;
40459;SDS011;26164;51.138;16.952;2023-04-21T03:59:18;61.60;;;34.75;;
40459;SDS011;26164;51.138;16.952;2023-04-21T04:01:44;60.20;;;31.88;;
40459;SDS011;26164;51.138;16.952;2023-04-21T04:04:10;53.47;;;27.73;;
40459;SDS011;26164;51.138;16.952;2023-04-21T04:06:36;48.53;;;25.10;;
40459;SDS011;26164;51.138;16.952;2023-04-21T04:09:02;50.65;;;23.50;;
40459;SDS011;26164;51.138;16.952;2023-04-21T04:11:29;42.10;;;23.15;;
40459;SDS011;26164;51.138;16.952;2023-04-21T04:13:55;41.35;;;23.05;;
40459;SDS011;26164;51.138;16.952;2023-04-21T04:16:21;41.53;;;23.52;;
40459;SDS011;26164;51.138;16.952;2023-04-21T04:18:48;38.42;;;22.48;;
40459;SDS011;26164;51.138;16.952;2023-04-21T04:21:14;39.55;;;21.90;;
40459;SDS011;26164;51.138;16.952;2023-04-21T04:23:40;37.38;;;22.27;;
40459;SDS011;26164;51.138;16.952;2023-04-21T04:26:07;40.20;;;23.45;;
40459;SDS011;26164;51.138;16.952;2023-04-21T04:28:33;44.90;;;21.65;;
40459;SDS011;26164;51.138;16.952;2023-04-21T04:31:04;41.92;;;21.27;;
40459;SDS011;26164;51.138;16.952;2023-04-21T04:33:30;39.20;;;20.85;;
40459;SDS011;26164;51.138;16.952;2023-04-21T04:35:56;33.75;;;19.95;;
40459;SDS011;26164;51.138;16.952;2023-04-21T04:38:22;41.88;;;19.75;;
40459;SDS011;26164;51.138;16.952;2023-04-21T04:40:53;42.85;;;20.23;;
40459;SDS011;26164;51.138;16.952;2023-04-21T04:43:24;62.63;;;21.05;;
40459;SDS011;26164;51.138;16.952;2023-04-21T04:45:52;45.65;;;20.33;;
40459;SDS011;26164;51.138;16.952;2023-04-21T04:48:38;40.90;;;19.95;;
40459;SDS011;26164;51.138;16.952;2023-04-21T04:51:05;40.35;;;18.40;;
40459;SDS011;26164;51.138;16.952;2023-04-21T04:53:31;42.65;;;17.63;;
40459;SDS011;26164;51.138;16.952;2023-04-21T04:55:57;43.70;;;18.33;;
40459;SDS011;26164;51.138;16.952;2023-04-21T04:58:23;47.20;;;17.63;;
40459;SDS011;26164;51.138;16.952;2023-04-21T05:00:49;34.40;;;17.83;;
40459;SDS011;26164;51.138;16.952;2023-04-21T05:03:15;34.97;;;17.70;;
40459;SDS011;26164;51.138;16.952;2023-04-21T05:05:41;55.15;;;19.75;;
40459;SDS011;26164;51.138;16.952;2023-04-21T05:08:07;51.22;;;19.27;;
40459;SDS011;26164;51.138;16.952;2023-04-21T05:10:33;49.88;;;19.55;;
40459;SDS011;26164;51.138;16.952;2023-04-21T05:12:59;49.78;;;19.08;;
40459;SDS011;26164;51.138;16.952;2023-04-21T05:15:25;42.05;;;18.25;;
40459;SDS011;26164;51.138;16.952;2023-04-21T05:17:51;36.22;;;18.05;;
40459;SDS011;26164;51.138;16.952;2023-04-21T05:20:17;36.83;;;17.45;;
40459;SDS011;26164;51.138;16.952;2023-04-21T05:22:42;45.72;;;17.92;;
40459;SDS011;26164;51.138;16.952;2023-04-21T05:25:09;41.38;;;18.88;;
40459;SDS011;26164;51.138;16.952;2023-04-21T05:27:34;39.45;;;18.90;;
40459;SDS011;26164;51.138;16.952;2023-04-21T05:30:01;39.70;;;18.70;;
40459;SDS011;26164;51.138;16.952;2023-04-21T05:32:26;35.33;;;16.77;;
40459;SDS011;26164;51.138;16.952;2023-04-21T05:34:52;32.13;;;17.00;;
40459;SDS011;26164;51.138;16.952;2023-04-21T05:37:17;37.65;;;16.98;;
40459;SDS011;26164;51.138;16.952;2023-04-21T05:39:44;32.20;;;16.23;;
40459;SDS011;26164;51.138;16.952;2023-04-21T05:42:10;33.47;;;16.75;;
40459;SDS011;26164;51.138;16.952;2023-04-21T05:44:36;38.28;;;17.48;;
40459;SDS011;26164;51.138;16.952;2023-04-21T05:47:05;34.72;;;16.40;;
40459;SDS011;26164;51.138;16.952;2023-04-21T05:49:33;31.13;;;15.77;;
40459;SDS011;26164;51.138;16.952;2023-04-21T05:51:58;30.27;;;15.18;;
40459;SDS011;26164;51.138;16.952;2023-04-21T05:54:24;30.23;;;15.30;;
40459;SDS011;26164;51.138;16.952;2023-04-21T05:56:51;27.42;;;15.00;;
40459;SDS011;26164;51.138;16.952;2023-04-21T05:59:17;26.05;;;15.10;;
40459;SDS011;26164;51.138;16.952;2023-04-21T06:01:45;34.97;;;15.45;;
40459;SDS011;26164;51.138;16.952;2023-04-21T06:04:12;24.75;;;15.18;;
40459;SDS011;26164;51.138;16.952;2023-04-21T06:06:38;29.65;;;14.73;;
40459;SDS011;26164;51.138;16.952;2023-04-21T06:09:05;42.42;;;15.18;;
40459;SDS011;26164;51.138;16.952;2023-04-21T06:11:32;26.63;;;14.35;;
40459;SDS011;26164;51.138;16.952;2023-04-21T06:14:02;29.42;;;14.48;;
40459;SDS011;26164;51.138;16.952;2023-04-21T06:16:33;26.75;;;14.40;;
40459;SDS011;26164;51.138;16.952;2023-04-21T06:19:05;25.73;;;13.55;;
40459;SDS011;26164;51.138;16.952;2023-04-21T06:21:31;29.33;;;14.20;;
40459;SDS011;26164;51.138;16.952;2023-04-21T06:23:58;22.90;;;14.13;;
40459;SDS011;26164;51.138;16.952;2023-04-21T06:26:23;30.50;;;14.68;;
40459;SDS011;26164;51.138;16.952;2023-04-21T06:28:50;29.55;;;13.85;;
40459;SDS011;26164;51.138;16.952;2023-04-21T06:31:18;28.48;;;13.48;;
40459;SDS011;26164;51.138;16.952;2023-04-21T06:33:48;30.67;;;14.10;;
40459;SDS011;26164;51.138;16.952;2023-04-21T06:36:14;29.83;;;13.80;;
40459;SDS011;26164;51.138;16.952;2023-04-21T06:38:40;28.38;;;13.75;;
40459;SDS011;26164;51.138;16.952;2023-04-21T06:41:10;30.15;;;14.55;;
40459;SDS011;26164;51.138;16.952;2023-04-21T06:43:35;26.55;;;13.35;;
40459;SDS011;26164;51.138;16.952;2023-04-21T06:46:02;21.92;;;13.07;;
40459;SDS011;26164;51.138;16.952;2023-04-21T06:48:30;27.05;;;13.20;;
40459;SDS011;26164;51.138;16.952;2023-04-21T06:50:56;28.83;;;13.90;;
40459;SDS011;26164;51.138;16.952;2023-04-21T06:53:22;32.42;;;13.63;;
40459;SDS011;26164;51.138;16.952;2023-04-21T06:55:47;23.63;;;12.88;;
40459;SDS011;26164;51.138;16.952;2023-04-21T06:58:13;27.15;;;12.57;;
40459;SDS011;26164;51.138;16.952;2023-04-21T07:00:40;28.67;;;12.30;;
40459;SDS011;26164;51.138;16.952;2023-04-21T07:03:06;27.08;;;13.10;;
40459;SDS011;26164;51.138;16.952;2023-04-21T07:29:47;25.35;;;12.25;;
40459;SDS011;26164;51.138;16.952;2023-04-21T07:34:46;26.40;;;13.85;;
40459;SDS011;26164;51.138;16.952;2023-04-21T07:37:17;24.33;;;12.73;;
40459;SDS011;26164;51.138;16.952;2023-04-21T07:39:43;22.40;;;11.40;;
40459;SDS011;26164;51.138;16.952;2023-04-21T07:42:15;31.13;;;12.02;;
40459;SDS011;26164;51.138;16.952;2023-04-21T07:44:41;26.98;;;12.20;;
40459;SDS011;26164;51.138;16.952;2023-04-21T07:47:12;25.67;;;13.02;;
40459;SDS011;26164;51.138;16.952;2023-04-21T07:49:44;26.63;;;12.18;;
40459;SDS011;26164;51.138;16.952;2023-04-21T07:52:12;26.83;;;12.38;;
40459;SDS011;26164;51.138;16.952;2023-04-21T07:54:38;22.25;;;12.40;;
40459;SDS011;26164;51.138;16.952;2023-04-21T07:57:04;23.45;;;12.13;;
40459;SDS011;26164;51.138;16.952;2023-04-21T07:59:33;23.30;;;12.55;;
40459;SDS011;26164;51.138;16.952;2023-04-21T08:02:00;24.20;;;12.70;;
40459;SDS011;26164;51.138;16.952;2023-04-21T08:04:27;25.30;;;12.25;;
40459;SDS011;26164;51.138;16.952;2023-04-21T08:06:53;34.25;;;12.38;;
40459;SDS011;26164;51.138;16.952;2023-04-21T08:09:18;22.58;;;12.95;;
40459;SDS011;26164;51.138;16.952;2023-04-21T08:11:44;23.50;;;12.55;;
40459;SDS011;26164;51.138;16.952;2023-04-21T08:14:13;21.15;;;11.60;;
40459;SDS011;26164;51.138;16.952;2023-04-21T08:16:39;27.60;;;12.32;;
40459;SDS011;26164;51.138;16.952;2023-04-21T08:19:07;28.40;;;11.80;;
40459;SDS011;26164;51.138;16.952;2023-04-21T08:21:33;22.38;;;12.10;;
40459;SDS011;26164;51.138;16.952;2023-04-21T08:23:59;24.67;;;12.00;;
40459;SDS011;26164;51.138;16.952;2023-04-21T08:26:25;23.42;;;11.43;;
40459;SDS011;26164;51.138;16.952;2023-04-21T08:28:50;23.25;;;11.88;;
40459;SDS011;26164;51.138;16.952;2023-04-21T08:31:18;26.08;;;11.50;;
40459;SDS011;26164;51.138;16.952;2023-04-21T08:33:43;21.02;;;11.57;;
40459;SDS011;26164;51.138;16.952;2023-04-21T08:36:10;25.65;;;11.57;;
40459;SDS011;26164;51.138;16.952;2023-04-21T08:38:40;22.60;;;11.00;;
40459;SDS011;26164;51.138;16.952;2023-04-21T08:41:06;23.27;;;11.35;;
40459;SDS011;26164;51.138;16.952;2023-04-21T08:43:32;22.10;;;11.60;;
40459;SDS011;26164;51.138;16.952;2023-04-21T08:45:58;27.92;;;11.75;;
40459;SDS011;26164;51.138;16.952;2023-04-21T08:48:26;19.20;;;11.05;;
40459;SDS011;26164;51.138;16.952;2023-04-21T08:50:54;17.83;;;10.73;;
40459;SDS011;26164;51.138;16.952;2023-04-21T08:53:20;19.98;;;10.02;;
40459;SDS011;26164;51.138;16.952;2023-04-21T08:55:50;17.58;;;10.00;;
40459;SDS011;26164;51.138;16.952;2023-04-21T08:58:17;19.40;;;10.50;;
40459;SDS011;26164;51.138;16.952;2023-04-21T09:00:45;17.98;;;10.38;;
40459;SDS011;26164;51.138;16.952;2023-04-21T09:03:12;21.98;;;10.55;;
40459;SDS011;26164;51.138;16.952;2023-04-21T09:05:38;19.52;;;9.25;;
40459;SDS011;26164;51.138;16.952;2023-04-21T09:08:08;15.77;;;10.02;;
40459;SDS011;26164;51.138;16.952;2023-04-21T09:10:43;22.80;;;9.95;;
40459;SDS011;26164;51.138;16.952;2023-04-21T09:13:09;21.08;;;9.45;;
40459;SDS011;26164;51.138;16.952;2023-04-21T09:15:43;15.48;;;9.35;;
40459;SDS011;26164;51.138;16.952;2023-04-21T09:20:36;14.68;;;9.05;;
40459;SDS011;26164;51.138;16.952;2023-04-21T09:23:05;18.60;;;9.05;;
40459;SDS011;26164;51.138;16.952;2023-04-21T09:25:31;21.52;;;9.00;;
40459;SDS011;26164;51.138;16.952;2023-04-21T09:28:01;19.83;;;8.27;;
40459;SDS011;26164;51.138;16.952;2023-04-21T09:30:27;12.32;;;7.82;;
40459;SDS011;26164;51.138;16.952;2023-04-21T09:32:56;15.10;;;8.18;;
40459;SDS011;26164;51.138;16.952;2023-04-21T09:35:28;15.30;;;7.25;;
40459;SDS011;26164;51.138;16.952;2023-04-21T09:37:54;14.05;;;8.13;;
40459;SDS011;26164;51.138;16.952;2023-04-21T09:40:20;16.85;;;7.53;;
40459;SDS011;26164;51.138;16.952;2023-04-21T09:42:49;11.63;;;7.10;;
40459;SDS011;26164;51.138;16.952;2023-04-21T09:45:17;15.13;;;7.30;;
40459;SDS011;26164;51.138;16.952;2023-04-21T09:47:43;15.75;;;7.30;;
40459;SDS011;26164;51.138;16.952;2023-04-21T09:50:12;14.43;;;7.53;;
40459;SDS011;26164;51.138;16.952;2023-04-21T09:52:38;13.30;;;7.20;;
40459;SDS011;26164;51.138;16.952;2023-04-21T09:55:07;12.90;;;6.82;;
40459;SDS011;26164;51.138;16.952;2023-04-21T09:57:35;13.82;;;7.10;;
40459;SDS011;26164;51.138;16.952;2023-04-21T10:00:06;11.02;;;6.55;;
40459;SDS011;26164;51.138;16.952;2023-04-21T10:02:44;13.30;;;6.65;;
40459;SDS011;26164;51.138;16.952;2023-04-21T10:05:12;13.02;;;6.40;;
40459;SDS011;26164;51.138;16.952;2023-04-21T10:07:38;11.75;;;6.57;;
40459;SDS011;26164;51.138;16.952;2023-04-21T10:10:05;12.18;;;6.60;;
40459;SDS011;26164;51.138;16.952;2023-04-21T10:12:32;10.70;;;6.50;;
40459;SDS011;26164;51.138;16.952;2023-04-21T10:15:02;16.95;;;7.30;;
40459;SDS011;26164;51.138;16.952;2023-04-21T10:17:27;17.45;;;6.82;;
40459;SDS011;26164;51.138;16.952;2023-04-21T10:19:54;13.80;;;6.35;;
40459;SDS011;26164;51.138;16.952;2023-04-21T10:22:27;10.73;;;5.72;;
40459;SDS011;26164;51.138;16.952;2023-04-21T10:24:54;10.63;;;6.22;;
40459;SDS011;26164;51.138;16.952;2023-04-21T10:27:39;13.15;;;5.93;;
40459;SDS011;26164;51.138;16.952;2023-04-21T10:30:26;10.73;;;6.03;;
40459;SDS011;26164;51.138;16.952;2023-04-21T10:33:02;12.82;;;6.20;;
40459;SDS011;26164;51.138;16.952;2023-04-21T10:40:43;10.55;;;5.72;;
40459;SDS011;26164;51.138;16.952;2023-04-21T10:43:36;13.20;;;6.38;;
40459;SDS011;26164;51.138;16.952;2023-04-21T10:45:54;13.63;;;5.93;;
40459;SDS011;26164;51.138;16.952;2023-04-21T10:48:20;12.02;;;5.68;;
40459;SDS011;26164;51.138;16.952;2023-04-21T10:50:46;10.30;;;5.95;;
40459;SDS011;26164;51.138;16.952;2023-04-21T10:53:14;10.50;;;5.72;;
40459;SDS011;26164;51.138;16.952;2023-04-21T10:55:41;10.63;;;5.97;;
40459;SDS011;26164;51.138;16.952;2023-04-21T10:58:08;12.85;;;5.38;;
40459;SDS011;26164;51.138;16.952;2023-04-21T11:00:34;10.23;;;5.03;;
40459;SDS011;26164;51.138;16.952;2023-04-21T11:03:03;7.85;;;4.63;;
40459;SDS011;26164;51.138;16.952;2023-04-21T11:05:30;11.07;;;4.90;;
40459;SDS011;26164;51.138;16.952;2023-04-21T11:08:02;8.48;;;4.82;;
40459;SDS011;26164;51.138;16.952;2023-04-21T11:10:29;9.37;;;5.00;;
40459;SDS011;26164;51.138;16.952;2023-04-21T11:12:56;9.30;;;4.97;;
40459;SDS011;26164;51.138;16.952;2023-04-21T11:15:22;10.30;;;4.57;;
40459;SDS011;26164;51.138;16.952;2023-04-21T11:17:47;13.10;;;5.10;;
40459;SDS011;26164;51.138;16.952;2023-04-21T11:20:14;6.97;;;4.03;;
40459;SDS011;26164;51.138;16.952;2023-04-21T11:22:40;10.25;;;4.75;;
40459;SDS011;26164;51.138;16.952;2023-04-21T11:25:15;10.23;;;4.15;;
40459;SDS011;26164;51.138;16.952;2023-04-21T11:27:40;9.98;;;4.10;;
40459;SDS011;26164;51.138;16.952;2023-04-21T11:30:07;10.15;;;4.20;;
40459;SDS011;26164;51.138;16.952;2023-04-21T11:32:33;7.57;;;4.32;;
40459;SDS011;26164;51.138;16.952;2023-04-21T11:34:59;9.10;;;3.85;;
40459;SDS011;26164;51.138;16.952;2023-04-21T11:37:25;6.78;;;4.28;;
40459;SDS011;26164;51.138;16.952;2023-04-21T11:39:55;6.70;;;4.00;;
40459;SDS011;26164;51.138;16.952;2023-04-21T11:42:21;7.15;;;3.95;;
40459;SDS011;26164;51.138;16.952;2023-04-21T11:44:47;7.80;;;4.43;;
40459;SDS011;26164;51.138;16.952;2023-04-21T11:47:16;10.82;;;4.53;;
40459;SDS011;26164;51.138;16.952;2023-04-21T11:49:47;7.15;;;4.20;;
40459;SDS011;26164;51.138;16.952;2023-04-21T11:52:22;6.95;;;4.28;;
40459;SDS011;26164;51.138;16.952;2023-04-21T11:54:52;8.18;;;4.32;;
40459;SDS011;26164;51.138;16.952;2023-04-21T11:57:18;9.07;;;4.50;;
40459;SDS011;26164;51.138;16.952;2023-04-21T11:59:44;7.80;;;4.53;;
40459;SDS011;26164;51.138;16.952;2023-04-21T12:02:12;8.55;;;4.80;;
40459;SDS011;26164;51.138;16.952;2023-04-21T12:04:38;13.73;;;4.50;;
40459;SDS011;26164;51.138;16.952;2023-04-21T12:07:04;11.98;;;4.40;;
40459;SDS011;26164;51.138;16.952;2023-04-21T12:09:29;9.05;;;4.85;;
40459;SDS011;26164;51.138;16.952;2023-04-21T12:11:55;12.65;;;4.40;;
40459;SDS011;26164;51.138;16.952;2023-04-21T12:14:22;6.88;;;4.22;;
40459;SDS011;26164;51.138;16.952;2023-04-21T12:16:52;8.25;;;4.32;;
40459;SDS011;26164;51.138;16.952;2023-04-21T12:19:22;11.68;;;4.40;;
40459;SDS011;26164;51.138;16.952;2023-04-21T12:21:57;7.55;;;3.92;;
40459;SDS011;26164;51.138;16.952;2023-04-21T12:24:22;8.18;;;4.10;;
40459;SDS011;26164;51.138;16.952;2023-04-21T12:26:48;6.90;;;4.32;;
40459;SDS011;26164;51.138;16.952;2023-04-21T12:29:14;9.82;;;3.92;;
40459;SDS011;26164;51.138;16.952;2023-04-21T12:31:39;9.32;;;4.43;;
40459;SDS011;26164;51.138;16.952;2023-04-21T12:34:05;6.63;;;4.50;;
40459;SDS011;26164;51.138;16.952;2023-04-21T12:36:31;9.35;;;4.20;;
40459;SDS011;26164;51.138;16.952;2023-04-21T12:38:57;9.32;;;4.20;;
40459;SDS011;26164;51.138;16.952;2023-04-21T12:41:22;6.95;;;4.40;;
40459;SDS011;26164;51.138;16.952;2023-04-21T12:43:48;9.63;;;4.70;;
40459;SDS011;26164;51.138;16.952;2023-04-21T12:46:14;9.38;;;4.28;;
40459;SDS011;26164;51.138;16.952;2023-04-21T12:48:40;8.52;;;3.97;;
40459;SDS011;26164;51.138;16.952;2023-04-21T12:51:06;10.50;;;4.45;;
40459;SDS011;26164;51.138;16.952;2023-04-21T12:53:32;7.13;;;4.00;;
40459;SDS011;26164;51.138;16.952;2023-04-21T12:55:57;8.00;;;4.00;;
40459;SDS011;26164;51.138;16.952;2023-04-21T12:58:23;11.95;;;4.72;;
40459;SDS011;26164;51.138;16.952;2023-04-21T13:00:49;5.60;;;3.33;;
40459;SDS011;26164;51.138;16.952;2023-04-21T13:03:18;5.88;;;4.10;;
40459;SDS011;26164;51.138;16.952;2023-04-21T13:05:44;10.02;;;4.88;;
40459;SDS011;26164;51.138;16.952;2023-04-21T13:08:10;6.97;;;4.03;;
40459;SDS011;26164;51.138;16.952;2023-04-21T13:10:35;9.85;;;4.80;;
40459;SDS011;26164;51.138;16.952;2023-04-21T13:13:01;8.55;;;4.53;;
40459;SDS011;26164;51.138;16.952;2023-04-21T13:15:27;7.25;;;4.13;;
40459;SDS011;26164;51.138;16.952;2023-04-21T13:17:53;6.63;;;4.00;;
40459;SDS011;26164;51.138;16.952;2023-04-21T13:20:18;5.95;;;3.75;;
40459;SDS011;26164;51.138;16.952;2023-04-21T13:22:45;6.40;;;3.97;;
40459;SDS011;26164;51.138;16.952;2023-04-21T13:25:11;9.40;;;4.15;;
40459;SDS011;26164;51.138;16.952;2023-04-21T13:27:41;6.85;;;4.50;;
40459;SDS011;26164;51.138;16.952;2023-04-21T13:30:07;6.05;;;3.88;;
40459;SDS011;26164;51.138;16.952;2023-04-21T13:38:45;6.15;;;3.97;;
40459;SDS011;26164;51.138;16.952;2023-04-21T13:41:16;6.28;;;4.03;;
40459;SDS011;26164;51.138;16.952;2023-04-21T13:43:42;7.43;;;4.80;;
40459;SDS011;26164;51.138;16.952;2023-04-21T13:46:26;6.78;;;4.25;;
40459;SDS011;26164;51.138;16.952;2023-04-21T13:49:19;7.35;;;4.30;;
40459;SDS011;26164;51.138;16.952;2023-04-21T13:52:09;9.68;;;4.32;;
40459;SDS011;26164;51.138;16.952;2023-04-21T13:54:38;8.63;;;4.80;;
40459;SDS011;26164;51.138;16.952;2023-04-21T13:57:05;12.20;;;5.30;;
40459;SDS011;26164;51.138;16.952;2023-04-21T13:59:30;9.23;;;4.60;;
40459;SDS011;26164;51.138;16.952;2023-04-21T14:02:07;11.05;;;4.90;;
40459;SDS011;26164;51.138;16.952;2023-04-21T14:04:52;7.40;;;5.00;;
40459;SDS011;26164;51.138;16.952;2023-04-21T14:10:11;10.95;;;4.53;;
40459;SDS011;26164;51.138;16.952;2023-04-21T14:12:39;6.30;;;4.10;;
40459;SDS011;26164;51.138;16.952;2023-04-21T14:15:06;9.57;;;4.80;;
40459;SDS011;26164;51.138;16.952;2023-04-21T14:17:33;5.88;;;3.92;;
40459;SDS011;26164;51.138;16.952;2023-04-21T14:19:59;7.63;;;4.20;;
40459;SDS011;26164;51.138;16.952;2023-04-21T14:22:32;11.48;;;4.60;;
40459;SDS011;26164;51.138;16.952;2023-04-21T14:24:58;9.45;;;3.90;;
40459;SDS011;26164;51.138;16.952;2023-04-21T14:29:58;7.22;;;4.53;;
40459;SDS011;26164;51.138;16.952;2023-04-21T14:32:24;7.95;;;4.13;;
40459;SDS011;26164;51.138;16.952;2023-04-21T14:34:50;10.48;;;4.30;;
40459;SDS011;26164;51.138;16.952;2023-04-21T14:37:18;5.78;;;3.80;;
40459;SDS011;26164;51.138;16.952;2023-04-21T14:39:44;11.65;;;3.88;;
40459;SDS011;26164;51.138;16.952;2023-04-21T14:42:10;7.63;;;4.30;;
40459;SDS011;26164;51.138;16.952;2023-04-21T14:44:36;12.23;;;4.63;;
40459;SDS011;26164;51.138;16.952;2023-04-21T14:47:01;8.77;;;4.60;;
40459;SDS011;26164;51.138;16.952;2023-04-21T14:49:27;8.50;;;4.30;;
40459;SDS011;26164;51.138;16.952;2023-04-21T14:51:57;7.47;;;4.28;;
40459;SDS011;26164;51.138;16.952;2023-04-21T14:54:24;12.25;;;4.82;;
40459;SDS011;26164;51.138;16.952;2023-04-21T14:56:53;10.23;;;4.40;;
40459;SDS011;26164;51.138;16.952;2023-04-21T14:59:19;9.55;;;4.43;;
40459;SDS011;26164;51.138;16.952;2023-04-21T15:01:47;9.70;;;4.82;;
40459;SDS011;26164;51.138;16.952;2023-04-21T15:04:12;11.00;;;4.90;;